sensor_id;sensor_type;location;lat;lon;timestamp;pressure;altitude;pressure_sealevel;temperature;humidity
43745;BME280;29359;53.048;8.732;2023-05-07T00:00:22;102082.75;;;10.95;79.17
43745;BME280;29359;53.048;8.732;2023-05-07T00:02:24;102081.88;;;10.93;79.44
43745;BME280;29359;53.048;8.732;2023-05-07T00:04:25;102073.09;;;10.89;79.43
43745;BME280;29359;53.048;8.732;2023-05-07T00:06:27;102074.88;;;10.87;79.41
43745;BME280;29359;53.048;8.732;2023-05-07T00:08:30;102080.16;;;10.89;79.12
43745;BME280;29359;53.048;8.732;2023-05-07T00:10:32;102071.34;;;10.90;78.73
43745;BME280;29359;53.048;8.732;2023-05-07T00:12:33;102075.75;;;10.88;78.71
43745;BME280;29359;53.048;8.732;2023-05-07T00:14:35;102068.75;;;10.85;78.74
43745;BME280;29359;53.048;8.732;2023-05-07T00:16:36;102069.63;;;10.84;78.43
43745;BME280;29359;53.048;8.732;2023-05-07T00:18:38;102065.22;;;10.82;78.75
43745;BME280;29359;53.048;8.732;2023-05-07T00:20:40;102064.38;;;10.80;78.70
43745;BME280;29359;53.048;8.732;2023-05-07T00:22:41;102063.50;;;10.78;78.88
43745;BME280;29359;53.048;8.732;2023-05-07T00:24:43;102058.25;;;10.76;78.84
43745;BME280;29359;53.048;8.732;2023-05-07T00:26:44;102064.44;;;10.74;79.03
43745;BME280;29359;53.048;8.732;2023-05-07T00:28:46;102061.78;;;10.75;79.12
43745;BME280;29359;53.048;8.732;2023-05-07T00:30:47;102063.53;;;10.76;78.73
43745;BME280;29359;53.048;8.732;2023-05-07T00:32:49;102067.06;;;10.75;78.83
43745;BME280;29359;53.048;8.732;2023-05-07T00:34:52;102068.81;;;10.76;78.32
43745;BME280;29359;53.048;8.732;2023-05-07T00:36:53;102063.50;;;10.78;78.36
43745;BME280;29359;53.048;8.732;2023-05-07T00:38:56;102068.81;;;10.76;78.10
43745;BME280;29359;53.048;8.732;2023-05-07T00:41:00;102066.19;;;10.75;78.15
43745;BME280;29359;53.048;8.732;2023-05-07T00:43:01;102065.31;;;10.74;77.93
43745;BME280;29359;53.048;8.732;2023-05-07T00:45:03;102063.59;;;10.70;78.26
43745;BME280;29359;53.048;8.732;2023-05-07T00:47:05;102062.72;;;10.66;78.52
43745;BME280;29359;53.048;8.732;2023-05-07T00:49:07;102062.72;;;10.68;77.97
43745;BME280;29359;53.048;8.732;2023-05-07T00:51:09;102061.81;;;10.69;77.80
43745;BME280;29359;53.048;8.732;2023-05-07T00:53:12;102060.94;;;10.70;77.77
43745;BME280;29359;53.048;8.732;2023-05-07T00:55:14;102061.84;;;10.66;77.98
43745;BME280;29359;53.048;8.732;2023-05-07T00:57:16;102068.91;;;10.64;78.13
43745;BME280;29359;53.048;8.732;2023-05-07T00:59:17;102063.63;;;10.64;78.13
43745;BME280;29359;53.048;8.732;2023-05-07T01:01:19;102069.81;;;10.61;78.11
43745;BME280;29359;53.048;8.732;2023-05-07T01:03:21;102066.31;;;10.59;77.87
43745;BME280;29359;53.048;8.732;2023-05-07T01:05:24;102061.06;;;10.56;78.20
43745;BME280;29359;53.048;8.732;2023-05-07T01:07:28;102069.00;;;10.55;78.48
43745;BME280;29359;53.048;8.732;2023-05-07T01:09:29;102059.38;;;10.49;78.79
43745;BME280;29359;53.048;8.732;2023-05-07T01:11:31;102066.41;;;10.49;79.09
43745;BME280;29359;53.048;8.732;2023-05-07T01:13:34;102079.66;;;10.43;78.85
43745;BME280;29359;53.048;8.732;2023-05-07T01:15:37;102080.53;;;10.43;79.14
43745;BME280;29359;53.048;8.732;2023-05-07T01:17:40;102077.91;;;10.43;78.83
43745;BME280;29359;53.048;8.732;2023-05-07T01:19:42;102078.78;;;10.45;78.40
43745;BME280;29359;53.048;8.732;2023-05-07T01:21:46;102069.09;;;10.46;78.37
43745;BME280;29359;53.048;8.732;2023-05-07T01:23:49;102078.78;;;10.45;77.99
43745;BME280;29359;53.048;8.732;2023-05-07T01:25:54;102067.34;;;10.45;78.55
43745;BME280;29359;53.048;8.732;2023-05-07T01:27:56;102073.50;;;10.42;78.43
43745;BME280;29359;53.048;8.732;2023-05-07T01:29:57;102057.66;;;10.39;78.09
43745;BME280;29359;53.048;8.732;2023-05-07T01:32:00;102062.09;;;10.37;78.68
43745;BME280;29359;53.048;8.732;2023-05-07T01:34:03;102065.59;;;10.36;78.46
43745;BME280;29359;53.048;8.732;2023-05-07T01:36:07;102068.25;;;10.37;78.09
43745;BME280;29359;53.048;8.732;2023-05-07T01:38:10;102071.75;;;10.36;78.31
43745;BME280;29359;53.048;8.732;2023-05-07T01:40:11;102063.88;;;10.32;78.62
43745;BME280;29359;53.048;8.732;2023-05-07T01:42:13;102058.63;;;10.30;78.51
43745;BME280;29359;53.048;8.732;2023-05-07T01:44:15;102063.03;;;10.30;78.29
43745;BME280;29359;53.048;8.732;2023-05-07T01:46:18;102061.22;;;10.33;77.62
43745;BME280;29359;53.048;8.732;2023-05-07T01:48:20;102053.31;;;10.35;77.80
43745;BME280;29359;53.048;8.732;2023-05-07T01:50:22;102058.59;;;10.33;77.95
43745;BME280;29359;53.048;8.732;2023-05-07T01:52:24;102068.28;;;10.30;78.20
43745;BME280;29359;53.048;8.732;2023-05-07T01:54:27;102059.53;;;10.28;78.24
43745;BME280;29359;53.048;8.732;2023-05-07T01:56:31;102070.94;;;10.28;77.73
43745;BME280;29359;53.048;8.732;2023-05-07T01:58:33;102063.06;;;10.24;78.73
43745;BME280;29359;53.048;8.732;2023-05-07T02:00:34;102066.56;;;10.26;78.14
43745;BME280;29359;53.048;8.732;2023-05-07T02:02:36;102064.81;;;10.25;78.47
43745;BME280;29359;53.048;8.732;2023-05-07T02:04:39;102075.38;;;10.25;78.18
43745;BME280;29359;53.048;8.732;2023-05-07T02:06:41;102074.50;;;10.26;78.05
43745;BME280;29359;53.048;8.732;2023-05-07T02:08:42;102070.13;;;10.22;77.94
43745;BME280;29359;53.048;8.732;2023-05-07T02:10:44;102073.66;;;10.21;77.72
43745;BME280;29359;53.048;8.732;2023-05-07T02:12:45;102070.09;;;10.19;78.11
43745;BME280;29359;53.048;8.732;2023-05-07T02:14:47;102071.88;;;10.18;77.54
43745;BME280;29359;53.048;8.732;2023-05-07T02:16:49;102077.13;;;10.20;77.70
43745;BME280;29359;53.048;8.732;2023-05-07T02:18:50;102078.91;;;10.19;77.43
43745;BME280;29359;53.048;8.732;2023-05-07T02:20:52;102082.44;;;10.18;78.04
43745;BME280;29359;53.048;8.732;2023-05-07T02:22:53;102079.78;;;10.18;77.54
43745;BME280;29359;53.048;8.732;2023-05-07T02:24:55;102081.56;;;10.16;77.40
43745;BME280;29359;53.048;8.732;2023-05-07T02:26:56;102078.06;;;10.14;77.40
43745;BME280;29359;53.048;8.732;2023-05-07T02:28:58;102075.44;;;10.11;78.15
43745;BME280;29359;53.048;8.732;2023-05-07T02:30:59;102076.31;;;10.10;77.68
43745;BME280;29359;53.048;8.732;2023-05-07T02:33:02;102074.56;;;10.09;77.73
43745;BME280;29359;53.048;8.732;2023-05-07T02:35:04;102072.81;;;10.11;77.01
43745;BME280;29359;53.048;8.732;2023-05-07T02:37:06;102083.38;;;10.08;77.17
43745;BME280;29359;53.048;8.732;2023-05-07T02:39:08;102073.72;;;10.05;78.03
43745;BME280;29359;53.048;8.732;2023-05-07T02:41:09;102079.00;;;10.05;77.55
43745;BME280;29359;53.048;8.732;2023-05-07T02:43:11;102085.16;;;10.04;77.83
43745;BME280;29359;53.048;8.732;2023-05-07T02:45:12;102095.72;;;10.04;77.90
43745;BME280;29359;53.048;8.732;2023-05-07T02:47:15;102087.81;;;10.01;77.72
43745;BME280;29359;53.048;8.732;2023-05-07T02:49:16;102087.81;;;9.97;78.35
43745;BME280;29359;53.048;8.732;2023-05-07T02:51:20;102087.81;;;9.97;77.66
43745;BME280;29359;53.048;8.732;2023-05-07T02:53:26;102096.63;;;9.93;78.68
43745;BME280;29359;53.048;8.732;2023-05-07T02:55:28;102090.50;;;9.91;79.07
43745;BME280;29359;53.048;8.732;2023-05-07T02:57:29;102095.75;;;9.92;77.99
43745;BME280;29359;53.048;8.732;2023-05-07T02:59:31;102095.75;;;9.92;77.79
43745;BME280;29359;53.048;8.732;2023-05-07T03:01:32;102092.25;;;9.92;77.71
43745;BME280;29359;53.048;8.732;2023-05-07T03:03:34;102093.13;;;9.89;78.10
43745;BME280;29359;53.048;8.732;2023-05-07T03:05:36;102101.06;;;9.86;78.00
43745;BME280;29359;53.048;8.732;2023-05-07T03:07:38;102095.81;;;9.83;79.23
43745;BME280;29359;53.048;8.732;2023-05-07T03:09:39;102089.66;;;9.80;78.93
43745;BME280;29359;53.048;8.732;2023-05-07T03:11:41;102100.22;;;9.81;78.49
43745;BME280;29359;53.048;8.732;2023-05-07T03:13:42;102100.22;;;9.81;78.22
43745;BME280;29359;53.048;8.732;2023-05-07T03:15:44;102098.44;;;9.83;77.73
43745;BME280;29359;53.048;8.732;2023-05-07T03:17:45;102098.44;;;9.82;78.07
43745;BME280;29359;53.048;8.732;2023-05-07T03:19:47;102106.34;;;9.83;77.33
43745;BME280;29359;53.048;8.732;2023-05-07T03:21:49;102093.19;;;9.80;77.34
43745;BME280;29359;53.048;8.732;2023-05-07T03:23:50;102094.06;;;9.81;78.20
43745;BME280;29359;53.048;8.732;2023-05-07T03:25:52;102089.66;;;9.80;78.02
43745;BME280;29359;53.048;8.732;2023-05-07T03:27:53;102091.44;;;9.77;78.11
43745;BME280;29359;53.048;8.732;2023-05-07T03:29:55;102092.31;;;9.78;77.73
43745;BME280;29359;53.048;8.732;2023-05-07T03:31:56;102088.81;;;9.77;77.48
43745;BME280;29359;53.048;8.732;2023-05-07T03:33:58;102089.69;;;9.78;77.92
43745;BME280;29359;53.048;8.732;2023-05-07T03:35:59;102080.88;;;9.81;77.42
43745;BME280;29359;53.048;8.732;2023-05-07T03:38:01;102083.50;;;9.81;77.67
43745;BME280;29359;53.048;8.732;2023-05-07T03:40:02;102087.03;;;9.80;77.29
43745;BME280;29359;53.048;8.732;2023-05-07T03:42:05;102088.78;;;9.82;76.91
43745;BME280;29359;53.048;8.732;2023-05-07T03:44:06;102092.28;;;9.83;77.24
43745;BME280;29359;53.048;8.732;2023-05-07T03:46:08;102075.63;;;9.79;77.00
43745;BME280;29359;53.048;8.732;2023-05-07T03:48:10;102083.53;;;9.79;77.02
43745;BME280;29359;53.048;8.732;2023-05-07T03:50:11;102086.16;;;9.77;77.74
43745;BME280;29359;53.048;8.732;2023-05-07T03:52:14;102085.28;;;9.77;77.34
43745;BME280;29359;53.048;8.732;2023-05-07T03:54:15;102080.00;;;9.79;76.60
43745;BME280;29359;53.048;8.732;2023-05-07T03:56:17;102085.28;;;9.79;76.91
43745;BME280;29359;53.048;8.732;2023-05-07T03:58:20;102085.28;;;9.77;77.40
43745;BME280;29359;53.048;8.732;2023-05-07T04:00:21;102092.31;;;9.78;76.99
43745;BME280;29359;53.048;8.732;2023-05-07T04:02:23;102092.31;;;9.78;77.64
43745;BME280;29359;53.048;8.732;2023-05-07T04:04:25;102082.66;;;9.77;77.57
43745;BME280;29359;53.048;8.732;2023-05-07T04:06:26;102092.31;;;9.78;77.10
43745;BME280;29359;53.048;8.732;2023-05-07T04:08:28;102091.44;;;9.79;76.62
43745;BME280;29359;53.048;8.732;2023-05-07T04:10:30;102094.94;;;9.80;76.56
43745;BME280;29359;53.048;8.732;2023-05-07T04:12:31;102089.66;;;9.83;76.28
43745;BME280;29359;53.048;8.732;2023-05-07T04:14:33;102093.16;;;9.83;76.39
43745;BME280;29359;53.048;8.732;2023-05-07T04:16:35;102101.09;;;9.82;76.86
43745;BME280;29359;53.048;8.732;2023-05-07T04:18:37;102101.97;;;9.82;76.85
43745;BME280;29359;53.048;8.732;2023-05-07T04:20:38;102094.94;;;9.83;76.82
43745;BME280;29359;53.048;8.732;2023-05-07T04:22:40;102105.47;;;9.83;76.64
43745;BME280;29359;53.048;8.732;2023-05-07T04:24:41;102108.09;;;9.86;76.42
43745;BME280;29359;53.048;8.732;2023-05-07T04:26:43;102110.75;;;9.84;75.82
43745;BME280;29359;53.048;8.732;2023-05-07T04:28:44;102109.84;;;9.87;76.59
43745;BME280;29359;53.048;8.732;2023-05-07T04:30:46;102109.84;;;9.87;76.53
43745;BME280;29359;53.048;8.732;2023-05-07T04:32:47;102106.34;;;9.88;76.40
43745;BME280;29359;53.048;8.732;2023-05-07T04:34:49;102104.59;;;9.87;75.62
43745;BME280;29359;53.048;8.732;2023-05-07T04:36:50;102104.59;;;9.87;75.97
43745;BME280;29359;53.048;8.732;2023-05-07T04:38:52;102106.34;;;9.86;76.23
43745;BME280;29359;53.048;8.732;2023-05-07T04:40:54;102105.44;;;9.89;76.32
43745;BME280;29359;53.048;8.732;2023-05-07T04:42:56;102106.34;;;9.88;75.55
43745;BME280;29359;53.048;8.732;2023-05-07T04:44:57;102106.34;;;9.88;76.15
43745;BME280;29359;53.048;8.732;2023-05-07T04:46:59;102109.84;;;9.87;76.35
43745;BME280;29359;53.048;8.732;2023-05-07T04:49:00;102109.88;;;9.85;76.12
43745;BME280;29359;53.048;8.732;2023-05-07T04:51:02;102108.13;;;9.83;77.06
43745;BME280;29359;53.048;8.732;2023-05-07T04:53:03;102098.44;;;9.83;76.44
43745;BME280;29359;53.048;8.732;2023-05-07T04:55:05;102103.72;;;9.83;77.21
43745;BME280;29359;53.048;8.732;2023-05-07T04:57:07;102105.47;;;9.83;76.88
43745;BME280;29359;53.048;8.732;2023-05-07T04:59:08;102107.22;;;9.87;76.33
43745;BME280;29359;53.048;8.732;2023-05-07T05:01:10;102111.63;;;9.86;76.98
43745;BME280;29359;53.048;8.732;2023-05-07T05:03:12;102116.88;;;9.88;76.24
43745;BME280;29359;53.048;8.732;2023-05-07T05:05:13;102111.59;;;9.91;75.35
43745;BME280;29359;53.048;8.732;2023-05-07T05:07:15;102112.47;;;9.91;75.22
43745;BME280;29359;53.048;8.732;2023-05-07T05:09:16;102120.38;;;9.93;75.49
43745;BME280;29359;53.048;8.732;2023-05-07T05:11:18;102115.09;;;9.91;75.66
43745;BME280;29359;53.048;8.732;2023-05-07T05:13:20;102115.97;;;9.93;75.59
43745;BME280;29359;53.048;8.732;2023-05-07T05:15:22;102117.72;;;9.94;76.24
43745;BME280;29359;53.048;8.732;2023-05-07T05:17:24;102123.88;;;9.95;75.88
43745;BME280;29359;53.048;8.732;2023-05-07T05:19:26;102129.16;;;9.98;75.38
43745;BME280;29359;53.048;8.732;2023-05-07T05:21:27;102123.88;;;10.01;75.26
43745;BME280;29359;53.048;8.732;2023-05-07T05:23:29;102123.88;;;10.02;74.90
43745;BME280;29359;53.048;8.732;2023-05-07T05:25:30;102136.19;;;10.02;75.43
43745;BME280;29359;53.048;8.732;2023-05-07T05:27:32;102137.97;;;10.00;76.15
43745;BME280;29359;53.048;8.732;2023-05-07T05:29:33;102136.19;;;10.00;76.08
43745;BME280;29359;53.048;8.732;2023-05-07T05:31:35;102136.19;;;10.02;75.38
43745;BME280;29359;53.048;8.732;2023-05-07T05:33:37;102133.56;;;10.00;75.88
43745;BME280;29359;53.048;8.732;2023-05-07T05:35:39;102136.19;;;10.00;76.03
43745;BME280;29359;53.048;8.732;2023-05-07T05:37:40;102130.03;;;10.00;75.88
43745;BME280;29359;53.048;8.732;2023-05-07T05:39:42;102135.31;;;10.01;76.14
43745;BME280;29359;53.048;8.732;2023-05-07T05:41:43;102138.84;;;10.00;75.99
43745;BME280;29359;53.048;8.732;2023-05-07T05:43:45;102141.47;;;10.02;76.31
43745;BME280;29359;53.048;8.732;2023-05-07T05:45:46;102147.63;;;10.02;77.61
43745;BME280;29359;53.048;8.732;2023-05-07T05:47:48;102144.09;;;10.03;76.84
43745;BME280;29359;53.048;8.732;2023-05-07T05:49:50;102150.25;;;10.04;76.32
43745;BME280;29359;53.048;8.732;2023-05-07T05:51:51;102144.09;;;10.05;76.39
43745;BME280;29359;53.048;8.732;2023-05-07T05:53:53;102144.09;;;10.03;76.74
43745;BME280;29359;53.048;8.732;2023-05-07T05:55:54;102146.72;;;10.05;75.65
43745;BME280;29359;53.048;8.732;2023-05-07T05:57:56;102150.25;;;10.05;75.45
43745;BME280;29359;53.048;8.732;2023-05-07T05:59:57;102142.31;;;10.07;76.44
43745;BME280;29359;53.048;8.732;2023-05-07T06:01:59;102149.34;;;10.08;75.75
43745;BME280;29359;53.048;8.732;2023-05-07T06:04:00;102151.97;;;10.11;76.48
43745;BME280;29359;53.048;8.732;2023-05-07T06:06:02;102154.59;;;10.11;76.13
43745;BME280;29359;53.048;8.732;2023-05-07T06:08:04;102165.16;;;10.13;77.07
43745;BME280;29359;53.048;8.732;2023-05-07T06:10:06;102158.13;;;10.10;77.08
43745;BME280;29359;53.048;8.732;2023-05-07T06:12:07;102158.13;;;10.12;76.51
43745;BME280;29359;53.048;8.732;2023-05-07T06:14:09;102159.00;;;10.12;76.06
43745;BME280;29359;53.048;8.732;2023-05-07T06:16:10;102157.22;;;10.16;75.85
43745;BME280;29359;53.048;8.732;2023-05-07T06:18:12;102157.19;;;10.19;76.03
43745;BME280;29359;53.048;8.732;2023-05-07T06:20:14;102155.44;;;10.19;75.73
43745;BME280;29359;53.048;8.732;2023-05-07T06:22:15;102156.31;;;10.20;75.35
43745;BME280;29359;53.048;8.732;2023-05-07T06:24:17;102150.16;;;10.22;74.62
43745;BME280;29359;53.048;8.732;2023-05-07T06:26:18;102149.28;;;10.23;74.40
43745;BME280;29359;53.048;8.732;2023-05-07T06:28:20;102151.94;;;10.23;75.00
43745;BME280;29359;53.048;8.732;2023-05-07T06:30:21;102151.03;;;10.24;75.02
43745;BME280;29359;53.048;8.732;2023-05-07T06:32:23;102153.66;;;10.26;74.92
43745;BME280;29359;53.048;8.732;2023-05-07T06:34:25;102151.00;;;10.29;75.18
43745;BME280;29359;53.048;8.732;2023-05-07T06:36:26;102146.59;;;10.32;75.35
43745;BME280;29359;53.048;8.732;2023-05-07T06:38:28;102143.94;;;10.35;75.69
43745;BME280;29359;53.048;8.732;2023-05-07T06:40:29;102150.09;;;10.41;74.24
43745;BME280;29359;53.048;8.732;2023-05-07T06:42:31;102146.53;;;10.45;74.12
43745;BME280;29359;53.048;8.732;2023-05-07T06:44:32;102146.50;;;10.48;74.32
43745;BME280;29359;53.048;8.732;2023-05-07T06:46:34;102143.88;;;10.49;74.07
43745;BME280;29359;53.048;8.732;2023-05-07T06:48:35;102144.72;;;10.53;73.96
43745;BME280;29359;53.048;8.732;2023-05-07T06:50:37;102151.72;;;10.57;74.06
43745;BME280;29359;53.048;8.732;2023-05-07T06:52:38;102149.94;;;10.59;74.11
43745;BME280;29359;53.048;8.732;2023-05-07T06:54:40;102142.88;;;10.62;74.66
43745;BME280;29359;53.048;8.732;2023-05-07T06:56:42;102161.34;;;10.67;74.48
43745;BME280;29359;53.048;8.732;2023-05-07T06:58:43;102157.81;;;10.68;73.70
43745;BME280;29359;53.048;8.732;2023-05-07T07:00:45;102156.91;;;10.69;73.69
43745;BME280;29359;53.048;8.732;2023-05-07T07:02:47;102159.53;;;10.72;73.39
43745;BME280;29359;53.048;8.732;2023-05-07T07:04:48;102162.16;;;10.72;73.93
43745;BME280;29359;53.048;8.732;2023-05-07T07:06:52;102166.53;;;10.76;73.88
43745;BME280;29359;53.048;8.732;2023-05-07T07:08:54;102171.78;;;10.79;73.99
43745;BME280;29359;53.048;8.732;2023-05-07T07:10:55;102170.91;;;10.80;73.43
43745;BME280;29359;53.048;8.732;2023-05-07T07:12:57;102179.69;;;10.82;73.11
43745;BME280;29359;53.048;8.732;2023-05-07T07:14:58;102175.31;;;10.81;72.79
43745;BME280;29359;53.048;8.732;2023-05-07T07:17:00;102177.06;;;10.81;72.99
43745;BME280;29359;53.048;8.732;2023-05-07T07:19:01;102177.94;;;10.81;73.10
43745;BME280;29359;53.048;8.732;2023-05-07T07:21:03;102172.66;;;10.81;73.99
43745;BME280;29359;53.048;8.732;2023-05-07T07:23:05;102188.50;;;10.83;74.23
43745;BME280;29359;53.048;8.732;2023-05-07T07:25:07;102188.53;;;10.84;73.39
43745;BME280;29359;53.048;8.732;2023-05-07T07:27:11;102188.53;;;10.84;73.86
43745;BME280;29359;53.048;8.732;2023-05-07T07:29:12;102180.56;;;10.87;73.93
43745;BME280;29359;53.048;8.732;2023-05-07T07:31:14;102185.84;;;10.89;73.87
43745;BME280;29359;53.048;8.732;2023-05-07T07:33:16;102181.41;;;10.92;73.43
43745;BME280;29359;53.048;8.732;2023-05-07T07:35:18;102184.88;;;10.97;73.15
43745;BME280;29359;53.048;8.732;2023-05-07T07:37:19;102177.81;;;10.99;73.09
43745;BME280;29359;53.048;8.732;2023-05-07T07:39:21;102196.31;;;11.01;72.95
43745;BME280;29359;53.048;8.732;2023-05-07T07:41:22;102176.03;;;11.03;72.30
43745;BME280;29359;53.048;8.732;2023-05-07T07:43:24;102188.34;;;11.06;72.73
43745;BME280;29359;53.048;8.732;2023-05-07T07:45:25;102175.13;;;11.06;73.11
43745;BME280;29359;53.048;8.732;2023-05-07T07:47:27;102180.38;;;11.10;73.45
43745;BME280;29359;53.048;8.732;2023-05-07T07:49:28;102172.41;;;11.12;74.05
43745;BME280;29359;53.048;8.732;2023-05-07T07:51:30;102170.63;;;11.14;73.40
43745;BME280;29359;53.048;8.732;2023-05-07T07:53:31;102176.75;;;11.19;73.16
43745;BME280;29359;53.048;8.732;2023-05-07T07:55:38;102180.22;;;11.25;72.32
43745;BME280;29359;53.048;8.732;2023-05-07T07:57:40;102177.56;;;11.27;73.14
43745;BME280;29359;53.048;8.732;2023-05-07T07:59:41;102180.19;;;11.27;73.33
43745;BME280;29359;53.048;8.732;2023-05-07T08:01:44;102181.09;;;11.29;73.21
43745;BME280;29359;53.048;8.732;2023-05-07T08:03:46;102183.75;;;11.27;72.93
43745;BME280;29359;53.048;8.732;2023-05-07T08:05:48;102182.84;;;11.30;72.72
43745;BME280;29359;53.048;8.732;2023-05-07T08:07:51;102187.22;;;11.32;73.82
43745;BME280;29359;53.048;8.732;2023-05-07T08:09:54;102200.44;;;11.34;73.37
43745;BME280;29359;53.048;8.732;2023-05-07T08:11:55;102195.09;;;11.39;72.83
43745;BME280;29359;53.048;8.732;2023-05-07T08:13:57;102194.16;;;11.44;72.63
43745;BME280;29359;53.048;8.732;2023-05-07T08:15:58;102200.28;;;11.49;72.07
43745;BME280;29359;53.048;8.732;2023-05-07T08:18:02;102204.63;;;11.55;72.20
43745;BME280;29359;53.048;8.732;2023-05-07T08:20:04;102202.81;;;11.58;72.45
43745;BME280;29359;53.048;8.732;2023-05-07T08:22:06;102203.69;;;11.59;73.23
43745;BME280;29359;53.048;8.732;2023-05-07T08:24:07;102206.28;;;11.63;72.63
43745;BME280;29359;53.048;8.732;2023-05-07T08:26:09;102204.47;;;11.69;72.90
43745;BME280;29359;53.048;8.732;2023-05-07T08:28:11;102203.56;;;11.70;71.63
43745;BME280;29359;53.048;8.732;2023-05-07T08:30:13;102200.94;;;11.73;71.80
43745;BME280;29359;53.048;8.732;2023-05-07T08:32:14;102201.78;;;11.75;71.87
43745;BME280;29359;53.048;8.732;2023-05-07T08:34:16;102201.75;;;11.81;71.55
43745;BME280;29359;53.048;8.732;2023-05-07T08:36:18;102205.22;;;11.86;71.22
43745;BME280;29359;53.048;8.732;2023-05-07T08:38:20;102197.19;;;11.93;71.21
43745;BME280;29359;53.048;8.732;2023-05-07T08:40:26;102205.91;;;12.02;71.31
43745;BME280;29359;53.048;8.732;2023-05-07T08:42:28;102204.94;;;12.09;70.81
43745;BME280;29359;53.048;8.732;2023-05-07T08:44:33;102204.00;;;12.13;70.82
43745;BME280;29359;53.048;8.732;2023-05-07T08:46:36;102204.84;;;12.16;70.29
43745;BME280;29359;53.048;8.732;2023-05-07T08:48:38;102206.53;;;12.23;70.75
43745;BME280;29359;53.048;8.732;2023-05-07T08:50:39;102193.25;;;12.25;70.92
43745;BME280;29359;53.048;8.732;2023-05-07T08:52:41;102208.22;;;12.29;70.68
43745;BME280;29359;53.048;8.732;2023-05-07T08:54:43;102206.34;;;12.36;70.95
43745;BME280;29359;53.048;8.732;2023-05-07T08:56:44;102209.84;;;12.38;70.88
43745;BME280;29359;53.048;8.732;2023-05-07T08:58:46;102208.88;;;12.45;71.27
43745;BME280;29359;53.048;8.732;2023-05-07T09:00:47;102211.41;;;12.52;70.12
43745;BME280;29359;53.048;8.732;2023-05-07T09:02:49;102199.88;;;12.56;69.67
43745;BME280;29359;53.048;8.732;2023-05-07T09:04:51;102202.50;;;12.60;69.26
43745;BME280;29359;53.048;8.732;2023-05-07T09:06:52;102204.22;;;12.64;69.95
43745;BME280;29359;53.048;8.732;2023-05-07T09:08:54;102205.94;;;12.66;70.11
43745;BME280;29359;53.048;8.732;2023-05-07T09:10:56;102198.81;;;12.70;69.03
43745;BME280;29359;53.048;8.732;2023-05-07T09:12:58;102198.75;;;12.74;69.12
43745;BME280;29359;53.048;8.732;2023-05-07T09:14:59;102211.88;;;12.82;69.58
43745;BME280;29359;53.048;8.732;2023-05-07T09:17:01;102210.03;;;12.85;69.06
43745;BME280;29359;53.048;8.732;2023-05-07T09:19:02;102209.94;;;12.92;69.03
43745;BME280;29359;53.048;8.732;2023-05-07T09:21:04;102209.91;;;12.95;68.60
43745;BME280;29359;53.048;8.732;2023-05-07T09:23:07;102218.66;;;13.00;68.70
43745;BME280;29359;53.048;8.732;2023-05-07T09:25:09;102218.66;;;13.00;68.87
43745;BME280;29359;53.048;8.732;2023-05-07T09:27:11;102223.09;;;13.01;68.49
43745;BME280;29359;53.048;8.732;2023-05-07T09:29:15;102220.38;;;13.04;68.48
43745;BME280;29359;53.048;8.732;2023-05-07T09:31:16;102214.06;;;13.11;68.58
43745;BME280;29359;53.048;8.732;2023-05-07T09:33:21;102213.06;;;13.19;69.03
43745;BME280;29359;53.048;8.732;2023-05-07T09:35:28;102213.78;;;13.29;68.41
43745;BME280;29359;53.048;8.732;2023-05-07T09:37:30;102221.63;;;13.35;68.03
43745;BME280;29359;53.048;8.732;2023-05-07T09:39:45;102217.19;;;13.36;67.88
43745;BME280;29359;53.048;8.732;2023-05-07T09:41:47;102223.34;;;13.38;68.22
43745;BME280;29359;53.048;8.732;2023-05-07T09:43:53;102213.59;;;13.40;68.28
43745;BME280;29359;53.048;8.732;2023-05-07T09:45:56;102213.53;;;13.43;68.49
43745;BME280;29359;53.048;8.732;2023-05-07T09:47:58;102219.69;;;13.46;67.95
43745;BME280;29359;53.048;8.732;2023-05-07T09:50:04;102204.66;;;13.47;68.51
43745;BME280;29359;53.048;8.732;2023-05-07T09:52:07;102206.31;;;13.52;68.43
43745;BME280;29359;53.048;8.732;2023-05-07T09:54:11;102201.84;;;13.55;68.62
43745;BME280;29359;53.048;8.732;2023-05-07T09:56:14;102206.16;;;13.60;68.37
43745;BME280;29359;53.048;8.732;2023-05-07T09:58:18;102202.50;;;13.66;68.39
43745;BME280;29359;53.048;8.732;2023-05-07T10:00:20;102208.56;;;13.72;68.33
43745;BME280;29359;53.048;8.732;2023-05-07T10:02:23;102207.56;;;13.78;67.59
43745;BME280;29359;53.048;8.732;2023-05-07T10:04:25;102205.78;;;13.80;67.78
43745;BME280;29359;53.048;8.732;2023-05-07T10:06:28;102198.91;;;13.70;68.00
43745;BME280;29359;53.048;8.732;2023-05-07T10:08:30;102193.63;;;13.68;68.15
43745;BME280;29359;53.048;8.732;2023-05-07T10:10:33;102199.69;;;13.75;68.46
43745;BME280;29359;53.048;8.732;2023-05-07T10:12:35;102199.53;;;13.82;68.45
43745;BME280;29359;53.048;8.732;2023-05-07T10:14:40;102202.97;;;13.89;68.55
43745;BME280;29359;53.048;8.732;2023-05-07T10:16:41;102200.22;;;13.94;68.09
43745;BME280;29359;53.048;8.732;2023-05-07T10:18:44;102201.91;;;13.98;67.93
43745;BME280;29359;53.048;8.732;2023-05-07T10:20:47;102208.81;;;14.05;67.39
43745;BME280;29359;53.048;8.732;2023-05-07T10:22:50;102204.28;;;14.10;67.50
43745;BME280;29359;53.048;8.732;2023-05-07T10:24:56;102202.34;;;14.18;67.28
43745;BME280;29359;53.048;8.732;2023-05-07T10:27:03;102195.00;;;14.29;67.63
43745;BME280;29359;53.048;8.732;2023-05-07T10:29:21;102218.59;;;14.46;67.46
43745;BME280;29359;53.048;8.732;2023-05-07T10:33:51;102218.69;;;14.82;65.90
43745;BME280;29359;53.048;8.732;2023-05-07T10:35:59;102221.84;;;14.97;65.73
43745;BME280;29359;53.048;8.732;2023-05-07T10:38:02;102216.13;;;15.13;65.41
43745;BME280;29359;53.048;8.732;2023-05-07T10:40:04;102216.72;;;15.25;65.07
43745;BME280;29359;53.048;8.732;2023-05-07T10:42:12;102214.91;;;15.27;64.92